Time;durP1;ratioP1;P1;durP2;ratioP2;P2;SDS_P1;SDS_P2;PMS_P1;PMS_P2;Temp;Humidity;BMP_temperature;BMP_pressure;BME280_temperature;BME280_humidity;BME280_pressure;Samples;Min_cycle;Max_cycle;Signal;HPM_P1;HPM_P2
2022/05/14 00:01:18;;;;;;;;;;;12.90;99.90;;;;;;5038236;28;20041;-75
2022/05/14 00:03:44;;;;;;;0.45;0.45;;;12.90;99.90;;;;;;5061846;28;19995;-75
2022/05/14 00:06:14;;;;;;;2.20;2.10;;;12.80;99.90;;;;;;5065470;28;20044;-74
2022/05/14 00:08:40;;;;;;;0.57;0.57;;;12.90;99.90;;;;;;5020073;28;20041;-74
2022/05/14 00:13:51;;;;;;;1.00;0.85;;;12.90;99.90;;;;;;5035156;28;19944;-75
2022/05/14 00:16:17;;;;;;;;;;;12.80;99.90;;;;;;5062415;28;20546;-76
2022/05/14 00:18:43;;;;;;;0.52;0.52;;;12.80;99.90;;;;;;5050024;28;20103;-75
2022/05/14 00:21:10;;;;;;;0.30;0.30;;;12.70;99.90;;;;;;5032885;28;20124;-74
2022/05/14 00:23:36;;;;;;;0.28;0.28;;;12.70;99.90;;;;;;5032745;28;20040;-75
2022/05/14 00:26:02;;;;;;;1.02;1.02;;;12.60;99.90;;;;;;5021215;28;20068;-74
2022/05/14 00:28:28;;;;;;;0.32;0.32;;;12.60;99.90;;;;;;5026998;28;20466;-74
2022/05/14 00:30:54;;;;;;;0.50;0.50;;;12.60;99.90;;;;;;5052975;28;20042;-76
2022/05/14 00:33:20;;;;;;;1.13;0.95;;;12.60;99.90;;;;;;5056747;28;20071;-75
2022/05/14 00:35:47;;;;;;;0.50;0.50;;;12.50;99.90;;;;;;5050064;28;20415;-75
2022/05/14 00:38:13;;;;;;;1.13;1.13;;;12.50;99.90;;;;;;5032852;28;20076;-75
2022/05/14 00:40:46;;;;;;;0.35;0.35;;;12.50;99.90;;;;;;5015999;28;20486;-74
2022/05/14 00:43:12;;;;;;;0.45;0.45;;;12.50;99.90;;;;;;5054674;28;20095;-75
2022/05/14 00:45:39;;;;;;;;;;;12.50;99.90;;;;;;5030204;28;20456;-74
2022/05/14 00:48:06;;;;;;;0.90;0.90;;;12.40;99.90;;;;;;5049795;28;19924;-73
2022/05/14 00:50:46;;;;;;;0.60;0.40;;;12.40;99.90;;;;;;5049072;28;20490;-73
2022/05/14 00:53:40;;;;;;;0.30;0.30;;;12.40;99.90;;;;;;5042461;28;20037;-76
2022/05/14 00:56:11;;;;;;;0.38;0.38;;;12.40;99.90;;;;;;5018617;28;20129;-75
2022/05/14 00:58:43;;;;;;;22.35;1.67;;;12.40;99.90;;;;;;5051838;28;20048;-75
2022/05/14 01:01:09;;;;;;;0.93;0.88;;;12.40;99.90;;;;;;5030264;28;20037;-75
2022/05/14 01:03:34;;;;;;;0.50;0.50;;;12.40;99.90;;;;;;5050370;28;20055;-73
2022/05/14 01:06:04;;;;;;;0.40;0.40;;;12.40;99.90;;;;;;5068428;28;20040;-75
2022/05/14 01:08:30;;;;;;;2.33;2.13;;;12.40;99.90;;;;;;5066905;28;20385;-76
2022/05/14 01:10:56;;;;;;;;;;;12.40;99.90;;;;;;5069453;28;20090;-75
2022/05/14 01:13:23;;;;;;;0.45;0.45;;;12.40;99.90;;;;;;5051983;28;19920;-75
2022/05/14 01:15:54;;;;;;;0.40;0.40;;;12.40;99.90;;;;;;5035377;28;20094;-75
2022/05/14 01:18:22;;;;;;;0.40;0.40;;;12.30;99.90;;;;;;5034266;28;20449;-74
2022/05/14 01:20:56;;;;;;;0.50;0.50;;;12.30;99.90;;;;;;5045809;28;20462;-74
2022/05/14 01:26:27;;;;;;;4.38;0.70;;;12.30;99.90;;;;;;5027995;28;20045;-76
2022/05/14 01:26:30;;;;;;;0.40;0.40;;;12.20;99.90;;;;;;5035429;28;20061;-76
2022/05/14 01:29:05;;;;;;;0.65;0.65;;;12.20;99.90;;;;;;5017199;28;20091;-76
2022/05/14 01:31:32;;;;;;;0.60;0.60;;;12.20;99.90;;;;;;5034762;28;20116;-73
2022/05/14 01:34:05;;;;;;;1.02;1.02;;;12.20;99.90;;;;;;5057373;28;20098;-74
2022/05/14 01:36:35;;;;;;;0.40;0.40;;;12.20;99.90;;;;;;5020326;28;20155;-75
2022/05/14 01:39:01;;;;;;;1.95;1.13;;;12.20;99.90;;;;;;5027517;28;20037;-77
2022/05/14 01:41:27;;;;;;;0.40;0.40;;;12.20;99.90;;;;;;5052271;28;20094;-75
2022/05/14 01:43:52;;;;;;;0.40;0.40;;;12.30;99.90;;;;;;5018130;28;20044;-74
2022/05/14 01:46:18;;;;;;;2.47;1.75;;;12.30;99.90;;;;;;5026129;28;20041;-73
2022/05/14 01:48:45;;;;;;;0.52;0.52;;;12.20;99.90;;;;;;5035853;28;20037;-76
2022/05/14 01:51:10;;;;;;;0.85;0.85;;;12.20;99.90;;;;;;5034143;28;20093;-75
2022/05/14 01:53:36;;;;;;;2.67;2.13;;;12.20;99.90;;;;;;5031512;28;20057;-74
2022/05/14 01:56:02;;;;;;;0.35;0.35;;;12.20;99.90;;;;;;5036660;28;20048;-75
2022/05/14 01:58:36;;;;;;;;;;;12.20;99.90;;;;;;5021468;28;20045;-74
2022/05/14 02:01:24;;;;;;;0.70;0.68;;;12.10;99.90;;;;;;5044845;28;19917;-75
2022/05/14 02:03:56;;;;;;;0.32;0.32;;;12.10;99.90;;;;;;5048500;28;20049;-74
2022/05/14 02:06:26;;;;;;;0.50;0.50;;;12.10;99.90;;;;;;5035641;28;20076;-77
2022/05/14 02:08:52;;;;;;;0.32;0.32;;;12.20;99.90;;;;;;5026706;28;20065;-75
2022/05/14 02:11:18;;;;;;;0.30;0.30;;;12.00;99.90;;;;;;5019546;28;20037;-76
2022/05/14 02:13:45;;;;;;;0.30;0.30;;;11.80;99.90;;;;;;5066141;28;20103;-76
2022/05/14 02:16:10;;;;;;;4.28;0.82;;;11.70;99.90;;;;;;5064975;28;20038;-75
2022/05/14 02:18:37;;;;;;;0.30;0.30;;;11.70;99.90;;;;;;5067299;28;20037;-76
2022/05/14 02:21:04;;;;;;;0.30;0.30;;;11.60;99.90;;;;;;5017751;28;20075;-76
2022/05/14 02:23:30;;;;;;;0.38;0.38;;;11.60;99.90;;;;;;5066907;28;20037;-74
2022/05/14 02:25:55;;;;;;;;;;;11.60;99.90;;;;;;5023959;28;20045;-75
2022/05/14 02:28:21;;;;;;;0.40;0.40;;;11.50;99.90;;;;;;5045838;28;19995;-72
2022/05/14 02:30:47;;;;;;;1.25;1.25;;;11.50;99.90;;;;;;5054783;28;20038;-72
2022/05/14 02:33:13;;;;;;;0.40;0.40;;;11.50;99.90;;;;;;5017261;28;20041;-76
2022/05/14 02:35:39;;;;;;;;;;;11.50;99.90;;;;;;5049920;28;20087;-74
2022/05/14 02:38:05;;;;;;;0.30;0.30;;;11.50;99.90;;;;;;5039689;28;20031;-76
2022/05/14 02:40:31;;;;;;;0.30;0.30;;;11.40;99.90;;;;;;5052832;28;20042;-74
2022/05/14 02:42:56;;;;;;;1.15;1.05;;;11.50;99.90;;;;;;5032295;28;20041;-73
2022/05/14 02:45:22;;;;;;;0.50;0.50;;;11.50;99.90;;;;;;5023129;28;20410;-74
2022/05/14 02:47:48;;;;;;;;;;;11.50;99.90;;;;;;5059388;28;20044;-77
2022/05/14 02:50:14;;;;;;;0.88;0.85;;;11.40;99.90;;;;;;5050987;28;19917;-74
2022/05/14 02:52:40;;;;;;;1.10;1.10;;;11.40;99.90;;;;;;5040264;28;20037;-73
2022/05/14 02:55:06;;;;;;;4.15;3.80;;;11.30;99.90;;;;;;5021209;28;20414;-73
2022/05/14 02:57:33;;;;;;;0.70;0.70;;;11.30;99.90;;;;;;5058365;28;20041;-74
2022/05/14 02:59:59;;;;;;;3.20;0.82;;;11.30;99.90;;;;;;5061031;28;20469;-76
2022/05/14 03:02:25;;;;;;;0.30;0.30;;;11.20;99.90;;;;;;5023403;28;20056;-74
2022/05/14 03:04:51;;;;;;;0.52;0.52;;;11.20;99.90;;;;;;5063954;28;20072;-77
2022/05/14 03:07:17;;;;;;;0.32;0.32;;;11.20;99.90;;;;;;5033034;28;20040;-74
2022/05/14 03:09:43;;;;;;;0.30;0.30;;;11.10;99.90;;;;;;5033782;28;20047;-75
2022/05/14 03:12:13;;;;;;;0.30;0.30;;;11.10;99.90;;;;;;5033616;28;20079;-77
2022/05/14 03:14:39;;;;;;;1.40;1.38;;;11.10;99.90;;;;;;5033988;28;20091;-77
2022/05/14 03:17:06;;;;;;;;;;;11.10;99.90;;;;;;5064714;28;20041;-77
2022/05/14 03:19:32;;;;;;;0.80;0.75;;;11.00;99.90;;;;;;5033052;28;19920;-76
2022/05/14 03:21:59;;;;;;;0.40;0.40;;;11.00;99.90;;;;;;5033960;28;20033;-78
2022/05/14 03:24:25;;;;;;;0.38;0.38;;;10.90;99.90;;;;;;5033240;28;20424;-77
2022/05/14 03:26:50;;;;;;;;;;;10.80;99.90;;;;;;5055884;28;20065;-77
2022/05/14 03:29:16;;;;;;;0.50;0.50;;;10.70;99.90;;;;;;5048049;28;20000;-75
2022/05/14 03:31:42;;;;;;;0.30;0.30;;;10.60;99.90;;;;;;5050093;28;20098;-74
2022/05/14 03:34:11;;;;;;;0.30;0.30;;;10.60;99.90;;;;;;5032722;28;20451;-74
2022/05/14 03:36:42;;;;;;;0.85;0.57;;;10.50;99.90;;;;;;5039879;28;20041;-76
2022/05/14 03:39:08;;;;;;;0.32;0.32;;;10.60;99.90;;;;;;5052186;28;20127;-75
2022/05/14 03:41:34;;;;;;;;;;;10.60;99.90;;;;;;5056054;28;20045;-76
2022/05/14 03:43:59;;;;;;;0.75;0.75;;;10.60;99.90;;;;;;5046555;28;19966;-76
2022/05/14 03:46:25;;;;;;;0.95;0.90;;;10.60;99.90;;;;;;5039179;28;20062;-77
2022/05/14 03:48:51;;;;;;;0.40;0.40;;;10.60;99.90;;;;;;5031038;28;20045;-76
2022/05/14 03:51:17;;;;;;;0.50;0.50;;;10.50;99.90;;;;;;5022704;28;20033;-75
2022/05/14 03:53:43;;;;;;;0.50;0.50;;;10.50;99.90;;;;;;5050559;28;20134;-76
2022/05/14 03:56:09;;;;;;;2.45;0.90;;;10.40;99.90;;;;;;5006690;28;20487;-76
2022/05/14 03:58:35;;;;;;;0.47;0.47;;;10.40;99.90;;;;;;5016400;28;20463;-73
2022/05/14 04:01:03;;;;;;;0.57;0.57;;;10.50;99.90;;;;;;5059036;28;20037;-74
2022/05/14 04:03:30;;;;;;;0.50;0.50;;;10.50;99.90;;;;;;5048197;28;20045;-78
2022/05/14 04:05:56;;;;;;;0.40;0.40;;;10.50;99.90;;;;;;5032803;28;20426;-77
2022/05/14 04:08:22;;;;;;;0.30;0.30;;;10.60;99.90;;;;;;5045206;28;20562;-76
2022/05/14 04:10:48;;;;;;;0.65;0.65;;;10.60;99.90;;;;;;5023490;28;20120;-77
2022/05/14 04:13:13;;;;;;;0.40;0.40;;;10.60;99.90;;;;;;5047030;28;20059;-75
2022/05/14 04:15:40;;;;;;;0.30;0.30;;;10.60;99.90;;;;;;5033004;28;20120;-75
2022/05/14 04:18:06;;;;;;;0.50;0.50;;;10.60;99.90;;;;;;5030910;28;20045;-77
2022/05/14 04:20:32;;;;;;;0.35;0.35;;;10.60;99.90;;;;;;5033248;28;20044;-75
2022/05/14 04:22:58;;;;;;;0.50;0.50;;;10.70;99.90;;;;;;5014346;28;20041;-76
2022/05/14 04:25:24;;;;;;;;;;;10.70;99.90;;;;;;5021639;28;20604;-75
2022/05/14 04:27:50;;;;;;;0.43;0.43;;;10.70;99.90;;;;;;5037059;28;19924;-77
2022/05/14 04:30:17;;;;;;;0.50;0.50;;;10.70;99.90;;;;;;5023324;28;20041;-74
2022/05/14 04:32:44;;;;;;;0.40;0.40;;;10.70;99.90;;;;;;5051119;28;20037;-77
2022/05/14 04:35:12;;;;;;;2.78;1.73;;;10.70;99.90;;;;;;5055286;28;20486;-76
2022/05/14 04:37:38;;;;;;;0.85;0.85;;;10.80;99.90;;;;;;5030234;28;20140;-76
2022/05/14 04:40:06;;;;;;;1.48;1.45;;;10.90;99.90;;;;;;5054906;28;20149;-78
2022/05/14 04:42:38;;;;;;;0.40;0.40;;;10.90;99.90;;;;;;5031684;28;20091;-75
2022/05/14 04:45:09;;;;;;;19.83;1.33;;;11.00;99.90;;;;;;5033042;28;20068;-77
2022/05/14 04:47:36;;;;;;;1.40;1.30;;;11.10;99.90;;;;;;5030222;28;20049;-74
2022/05/14 04:50:03;;;;;;;0.38;0.38;;;11.10;99.90;;;;;;5033055;28;20099;-75
2022/05/14 04:52:28;;;;;;;0.45;0.40;;;11.20;99.90;;;;;;5032815;28;20452;-76
2022/05/14 04:54:54;;;;;;;2.17;2.03;;;11.30;99.90;;;;;;5036245;28;20113;-75
2022/05/14 04:57:20;;;;;;;0.55;0.55;;;11.30;99.90;;;;;;5014554;28;20049;-75
2022/05/14 04:59:46;;;;;;;0.32;0.32;;;11.40;99.90;;;;;;5014730;28;20041;-76
2022/05/14 05:04:55;;;;;;;0.60;0.60;;;11.50;99.90;;;;;;5057760;28;20453;-76
2022/05/14 05:07:21;;;;;;;0.40;0.40;;;11.50;99.90;;;;;;5012950;28;20045;-77
2022/05/14 05:09:47;;;;;;;0.43;0.43;;;11.60;99.90;;;;;;4998553;28;20372;-76
2022/05/14 05:12:13;;;;;;;0.40;0.40;;;11.70;99.90;;;;;;5064595;28;20045;-77
2022/05/14 05:14:39;;;;;;;;;;;11.80;99.90;;;;;;5065226;28;20041;-77
2022/05/14 05:17:05;;;;;;;0.30;0.30;;;11.90;99.90;;;;;;5046169;28;19920;-76
2022/05/14 05:19:30;;;;;;;0.30;0.30;;;12.00;99.90;;;;;;5017015;28;20060;-75
2022/05/14 05:21:57;;;;;;;0.40;0.40;;;12.10;99.90;;;;;;5044702;28;20057;-75
2022/05/14 05:24:23;;;;;;;;;;;12.20;99.90;;;;;;5017107;28;20040;-76
2022/05/14 05:26:49;;;;;;;0.77;0.77;;;12.20;99.90;;;;;;5045315;28;20012;-74
2022/05/14 05:29:15;;;;;;;1.85;0.40;;;12.30;99.90;;;;;;5046986;28;20587;-75
2022/05/14 05:31:41;;;;;;;0.70;0.70;;;12.40;99.90;;;;;;5032395;28;20037;-76
2022/05/14 05:34:07;;;;;;;0.40;0.40;;;12.40;99.90;;;;;;5029985;28;20487;-73
2022/05/14 05:36:33;;;;;;;0.73;0.73;;;12.40;99.90;;;;;;5038485;28;20699;-76
2022/05/14 05:38:59;;;;;;;0.75;0.75;;;12.40;99.90;;;;;;5051680;28;20443;-75
2022/05/14 05:41:25;;;;;;;0.38;0.38;;;12.40;99.90;;;;;;5064375;28;20097;-78
2022/05/14 05:43:50;;;;;;;2.30;2.20;;;12.30;99.90;;;;;;5047627;28;20505;-74
2022/05/14 05:46:16;;;;;;;1.98;0.90;;;12.30;99.90;;;;;;5024641;28;20052;-76
2022/05/14 05:48:43;;;;;;;0.57;0.57;;;12.30;99.90;;;;;;5055357;28;20044;-74
2022/05/14 05:51:09;;;;;;;0.30;0.30;;;12.40;99.90;;;;;;5042635;28;20037;-74
2022/05/14 05:59:04;;;;;;;0.50;0.50;;;12.80;99.90;;;;;;5038398;28;20053;-74
2022/05/14 06:01:31;;;;;;;0.47;0.47;;;12.90;99.90;;;;;;5026161;28;20053;-75
2022/05/14 06:03:57;;;;;;;2.05;0.85;;;13.00;99.90;;;;;;5034102;28;20049;-74
2022/05/14 06:06:23;;;;;;;1.35;1.25;;;13.10;99.90;;;;;;5050861;28;20041;-76
2022/05/14 06:08:49;;;;;;;0.50;0.50;;;13.20;99.90;;;;;;5034534;28;20045;-75
2022/05/14 06:11:15;;;;;;;0.43;0.43;;;13.40;99.90;;;;;;5067549;28;20052;-73
2022/05/14 06:13:43;;;;;;;0.95;0.95;;;13.50;99.90;;;;;;5028501;28;20048;-76
2022/05/14 06:16:09;;;;;;;1.75;1.65;;;13.60;99.90;;;;;;5049738;28;20045;-74
2022/05/14 06:18:35;;;;;;;0.95;0.65;;;13.70;99.90;;;;;;5067004;28;20045;-74
2022/05/14 06:21:01;;;;;;;3.65;1.75;;;13.70;99.90;;;;;;5067080;28;20430;-75
2022/05/14 06:23:26;;;;;;;;;;;13.70;99.90;;;;;;5035911;28;20127;-76
2022/05/14 06:25:52;;;;;;;1.98;1.88;;;13.70;99.90;;;;;;5040552;28;19987;-75
2022/05/14 06:28:18;;;;;;;0.35;0.35;;;13.80;99.90;;;;;;5031945;28;20033;-77
2022/05/14 06:30:45;;;;;;;0.40;0.40;;;13.90;99.90;;;;;;5029827;28;20555;-75
2022/05/14 06:33:12;;;;;;;0.32;0.32;;;13.90;99.90;;;;;;5050975;28;20099;-73
2022/05/14 06:35:39;;;;;;;0.50;0.50;;;13.90;99.90;;;;;;5017709;28;20479;-74
2022/05/14 06:38:06;;;;;;;0.50;0.50;;;13.90;99.90;;;;;;5023341;28;20079;-77
2022/05/14 06:40:33;;;;;;;3.08;1.08;;;13.90;99.90;;;;;;5034937;28;20045;-77
2022/05/14 06:42:59;;;;;;;0.30;0.30;;;13.90;99.90;;;;;;5058011;28;20045;-72
2022/05/14 06:45:25;;;;;;;0.30;0.30;;;13.90;99.90;;;;;;5036855;28;20067;-77
2022/05/14 06:47:51;;;;;;;;;;;14.10;99.90;;;;;;5042649;28;20044;-75
2022/05/14 06:50:18;;;;;;;1.13;1.08;;;14.10;99.90;;;;;;5035644;28;20246;-75
2022/05/14 06:52:48;;;;;;;0.50;0.50;;;14.10;99.90;;;;;;5034906;28;20116;-74
2022/05/14 06:55:21;;;;;;;0.40;0.40;;;14.20;99.90;;;;;;5038903;28;20061;-72
2022/05/14 06:57:48;;;;;;;1.10;1.10;;;14.20;99.90;;;;;;5037907;28;20064;-74
2022/05/14 07:00:14;;;;;;;1.10;1.05;;;14.30;99.90;;;;;;5046994;28;20144;-73
2022/05/14 07:02:42;;;;;;;2.17;1.48;;;14.40;99.90;;;;;;5041402;28;20052;-74
2022/05/14 07:07:53;;;;;;;1.10;1.10;;;14.40;99.90;;;;;;5050518;28;20045;-75
2022/05/14 07:10:18;;;;;;;0.70;0.70;;;14.50;99.90;;;;;;5066083;28;20060;-77
2022/05/14 07:12:44;;;;;;;0.30;0.30;;;14.50;99.90;;;;;;5065785;28;20470;-75
2022/05/14 07:15:12;;;;;;;;;;;14.60;99.90;;;;;;5066353;28;20041;-74
2022/05/14 07:17:38;;;;;;;;;;;14.70;99.90;;;;;;5048476;28;19999;-74
2022/05/14 07:20:05;;;;;;;0.30;0.30;;;14.70;99.90;;;;;;5049418;28;20389;-73
2022/05/14 07:22:30;;;;;;;0.40;0.40;;;14.80;99.90;;;;;;5066375;28;20044;-72
2022/05/14 07:24:56;;;;;;;0.60;0.60;;;14.90;99.90;;;;;;5028432;28;20041;-75
2022/05/14 07:27:25;;;;;;;2.40;0.38;;;15.00;99.90;;;;;;5004952;28;20044;-76
2022/05/14 07:29:52;;;;;;;1.45;1.35;;;15.10;99.90;;;;;;5032828;28;20045;-76
2022/05/14 07:32:18;;;;;;;;;;;15.10;99.90;;;;;;5016766;28;20172;-71
2022/05/14 07:34:44;;;;;;;1.55;0.73;;;15.20;99.90;;;;;;5038484;28;19917;-74
2022/05/14 07:37:21;;;;;;;0.40;0.40;;;15.30;99.90;;;;;;5028887;28;20052;-76
2022/05/14 07:40:03;;;;;;;0.65;0.43;;;15.20;99.90;;;;;;5047874;28;20107;-73
2022/05/14 07:42:50;;;;;;;1.08;1.05;;;15.40;99.90;;;;;;5048033;28;20463;-75
2022/05/14 07:45:21;;;;;;;0.30;0.30;;;15.50;99.90;;;;;;5048933;28;20124;-74
2022/05/14 07:47:48;;;;;;;0.45;0.45;;;15.70;99.90;;;;;;5023019;28;20076;-73
2022/05/14 07:50:14;;;;;;;0.35;0.35;;;15.70;99.90;;;;;;5036153;28;20151;-73
2022/05/14 07:52:41;;;;;;;0.60;0.60;;;15.70;99.90;;;;;;5022112;28;20033;-74
2022/05/14 07:55:08;;;;;;;0.85;0.70;;;15.80;99.90;;;;;;5049450;28;20056;-74
2022/05/14 07:57:33;;;;;;;0.30;0.30;;;15.80;99.90;;;;;;5019455;28;20037;-75
2022/05/14 07:59:59;;;;;;;0.40;0.40;;;15.80;99.90;;;;;;5011839;28;20041;-75
2022/05/14 08:02:28;;;;;;;;;;;15.90;99.90;;;;;;5039428;28;20060;-75
2022/05/14 08:04:54;;;;;;;1.75;1.40;;;16.00;99.90;;;;;;5047927;28;19924;-75
2022/05/14 08:07:20;;;;;;;0.65;0.65;;;16.10;99.90;;;;;;5033079;28;20041;-75
2022/05/14 08:09:45;;;;;;;;;;;16.20;99.90;;;;;;5064403;28;20045;-73
2022/05/14 08:12:11;;;;;;;0.90;0.65;;;16.30;99.90;;;;;;5036238;28;19924;-75
2022/05/14 08:14:39;;;;;;;0.73;0.70;;;16.40;99.90;;;;;;5048740;28;20478;-74
2022/05/14 08:17:07;;;;;;;0.28;0.28;;;16.40;99.90;;;;;;5045902;28;20115;-74
2022/05/14 08:19:33;;;;;;;0.30;0.30;;;16.50;99.90;;;;;;5066748;28;20049;-75
2022/05/14 08:24:42;;;;;;;0.35;0.35;;;16.80;99.90;;;;;;5046504;28;20053;-77
2022/05/14 08:27:10;;;;;;;;;;;16.90;99.90;;;;;;5002973;28;20041;-76
2022/05/14 08:29:36;;;;;;;0.32;0.32;;;17.00;99.90;;;;;;5034422;28;19921;-75
2022/05/14 08:32:03;;;;;;;0.40;0.40;;;17.00;99.90;;;;;;5021821;28;20049;-76
2022/05/14 08:34:30;;;;;;;0.20;0.20;;;17.00;99.90;;;;;;5033210;28;20056;-74
2022/05/14 08:36:59;;;;;;;0.40;0.40;;;17.20;99.90;;;;;;5008221;28;20057;-74
2022/05/14 08:39:27;;;;;;;1.38;1.33;;;17.40;99.90;;;;;;5032497;28;20077;-75
2022/05/14 08:41:54;;;;;;;1.85;1.77;;;17.60;99.90;;;;;;5025053;28;20486;-75
2022/05/14 08:44:23;;;;;;;0.30;0.30;;;17.60;99.90;;;;;;5028951;28;20047;-75
2022/05/14 08:46:57;;;;;;;1.80;0.75;;;17.50;99.90;;;;;;5049421;28;20106;-74
2022/05/14 08:49:29;;;;;;;0.30;0.30;;;17.40;99.90;;;;;;5033255;28;20474;-74
2022/05/14 08:51:56;;;;;;;1.08;0.98;;;17.50;99.90;;;;;;5052035;28;20091;-76
2022/05/14 08:54:21;;;;;;;0.30;0.30;;;17.60;99.90;;;;;;5032961;28;20525;-75
2022/05/14 08:56:54;;;;;;;;;;;17.70;99.90;;;;;;5035270;28;20060;-75
2022/05/14 08:59:52;;;;;;;0.40;0.40;;;17.60;99.90;;;;;;5054129;28;19924;-75
2022/05/14 09:02:17;;;;;;;;;;;17.40;99.90;;;;;;5054232;28;20090;-73
2022/05/14 09:04:44;;;;;;;0.40;0.40;;;17.10;99.90;;;;;;5045761;28;19920;-77
2022/05/14 09:07:09;;;;;;;0.50;0.50;;;16.90;99.90;;;;;;5032077;28;20049;-77
2022/05/14 09:09:45;;;;;;;;;;;17.10;99.90;;;;;;5049116;28;20047;-74
2022/05/14 09:12:17;;;;;;;0.80;0.80;;;17.40;99.90;;;;;;5041696;28;19921;-75
2022/05/14 09:14:43;;;;;;;0.95;0.95;;;17.80;99.90;;;;;;5048403;28;20431;-73
2022/05/14 09:17:20;;;;;;;;;;;18.20;99.90;;;;;;5037721;28;20399;-74
2022/05/14 09:19:50;;;;;;;0.52;0.52;;;18.30;99.90;;;;;;5066190;28;20302;-74
2022/05/14 09:22:21;;;;;;;0.95;0.95;;;18.30;99.90;;;;;;5068110;28;20050;-76
2022/05/14 09:24:56;;;;;;;0.73;0.73;;;18.20;99.90;;;;;;5064335;28;20190;-73
2022/05/14 09:27:26;;;;;;;0.75;0.75;;;18.10;99.90;;;;;;5045149;28;20095;-75
2022/05/14 09:30:02;;;;;;;0.55;0.55;;;18.00;99.90;;;;;;5036322;28;20048;-74
2022/05/14 09:32:38;;;;;;;3.00;0.68;;;18.30;99.90;;;;;;5056195;28;20099;-74
2022/05/14 09:35:17;;;;;;;0.90;0.60;;;18.30;99.90;;;;;;5058686;28;20046;-77
2022/05/14 09:37:43;;;;;;;0.32;0.32;;;18.20;99.90;;;;;;5053329;28;20037;-75
2022/05/14 09:40:23;;;;;;;2.75;0.98;;;18.10;99.90;;;;;;5042048;28;20038;-76
2022/05/14 09:42:52;;;;;;;1.63;1.55;;;18.00;99.90;;;;;;5050690;28;20041;-73
2022/05/14 09:45:25;;;;;;;0.45;0.45;;;17.90;99.90;;;;;;5065015;28;20130;-75
2022/05/14 09:47:52;;;;;;;3.50;1.33;;;18.10;99.90;;;;;;5054618;28;20478;-73
2022/05/14 09:50:29;;;;;;;0.43;0.32;;;18.20;99.90;;;;;;5053928;28;20045;-75
2022/05/14 09:53:04;;;;;;;2.08;1.75;;;18.30;99.90;;;;;;5052696;28;20081;-75
2022/05/14 09:55:54;;;;;;;1.10;1.00;;;18.40;99.90;;;;;;5034918;28;20115;-73
2022/05/14 09:58:45;;;;;;;0.60;0.60;;;18.20;99.90;;;;;;5049352;28;20459;-74
2022/05/14 10:01:22;;;;;;;0.32;0.32;;;18.00;99.90;;;;;;5049320;28;20095;-73
2022/05/14 10:03:56;;;;;;;0.30;0.30;;;17.90;99.90;;;;;;5063779;28;20037;-74
2022/05/14 10:06:43;;;;;;;0.50;0.50;;;18.00;99.90;;;;;;5052272;28;20544;-75
2022/05/14 10:09:23;;;;;;;0.43;0.43;;;18.20;99.90;;;;;;5031061;28;20120;-74
2022/05/14 10:12:03;;;;;;;0.85;0.85;;;18.40;99.90;;;;;;5066149;28;20040;-76
2022/05/14 10:14:32;;;;;;;0.73;0.73;;;18.50;99.90;;;;;;5051211;28;20362;-77
2022/05/14 10:17:22;;;;;;;0.47;0.47;;;18.60;99.90;;;;;;5031728;28;20051;-76
2022/05/14 10:20:06;;;;;;;3.58;3.28;;;18.50;99.90;;;;;;5051989;28;20102;-75
2022/05/14 10:28:49;;;;;;;0.60;0.57;;;18.90;99.90;;;;;;5036217;28;20123;-74
2022/05/14 10:31:18;;;;;;;;;;;19.00;99.90;;;;;;5052574;28;20052;-74
2022/05/14 10:33:46;;;;;;;0.50;0.50;;;19.20;99.90;;;;;;5051818;28;19921;-73
2022/05/14 10:36:26;;;;;;;0.40;0.40;;;19.20;99.90;;;;;;5041664;28;20498;-75
2022/05/14 10:39:01;;;;;;;1.00;1.00;;;19.20;99.90;;;;;;5055056;28;20053;-78
2022/05/14 10:41:34;;;;;;;0.95;0.95;;;19.40;99.90;;;;;;5024838;28;20144;-74
2022/05/14 10:44:17;;;;;;;0.40;0.40;;;19.40;99.30;;;;;;5053234;28;20041;-76
2022/05/14 10:46:46;;;;;;;0.52;0.52;;;19.30;99.90;;;;;;5055341;28;20045;-76
2022/05/14 10:49:33;;;;;;;0.60;0.60;;;19.30;99.90;;;;;;5017688;28;20120;-75
2022/05/14 10:52:00;;;;;;;1.65;1.08;;;19.30;99.40;;;;;;5047939;28;20045;-75
2022/05/14 10:54:26;;;;;;;1.17;1.17;;;19.10;98.50;;;;;;5057744;28;20057;-75
2022/05/14 10:57:14;;;;;;;0.85;0.82;;;19.20;99.00;;;;;;5051694;28;20045;-73
2022/05/14 11:00:07;;;;;;;0.32;0.32;;;19.20;98.30;;;;;;5058635;28;20045;-75
2022/05/14 11:02:38;;;;;;;2.65;1.65;;;19.30;99.50;;;;;;5030795;28;20048;-76
2022/05/14 11:05:06;;;;;;;0.43;0.43;;;19.50;98.20;;;;;;5048234;28;20394;-75
2022/05/14 11:07:35;;;;;;;1.88;1.38;;;19.70;97.70;;;;;;5050974;28;20108;-74
2022/05/14 11:10:18;;;;;;;0.93;0.93;;;19.90;96.40;;;;;;5064759;28;20043;-75
2022/05/14 11:12:46;;;;;;;3.10;2.03;;;19.90;96.00;;;;;;5050080;28;20040;-75
2022/05/14 11:15:25;;;;;;;0.88;0.88;;;20.00;96.30;;;;;;5016032;28;20041;-75
2022/05/14 11:18:06;;;;;;;0.85;0.82;;;20.10;95.50;;;;;;5064016;28;20072;-76
2022/05/14 11:20:32;;;;;;;0.80;0.77;;;20.20;95.10;;;;;;5066482;28;20045;-75
2022/05/14 11:23:08;;;;;;;0.32;0.32;;;20.20;95.00;;;;;;5048494;28;20041;-75
2022/05/14 11:25:34;;;;;;;0.47;0.47;;;20.40;94.80;;;;;;5055995;28;20033;-75
2022/05/14 11:27:59;;;;;;;;;;;20.60;94.40;;;;;;5044246;28;20369;-75
2022/05/14 11:30:54;;;;;;;0.75;0.75;;;20.40;93.60;;;;;;5048369;28;19939;-75
2022/05/14 11:33:26;;;;;;;1.05;0.80;;;20.20;94.10;;;;;;5024265;28;20549;-75
2022/05/14 11:36:04;;;;;;;1.70;0.82;;;20.10;94.50;;;;;;5029075;28;20045;-76
2022/05/14 11:38:37;;;;;;;0.52;0.52;;;20.30;94.80;;;;;;5050468;28;20072;-74
2022/05/14 11:41:09;;;;;;;0.50;0.50;;;20.50;93.30;;;;;;5051538;28;20037;-75
2022/05/14 11:43:48;;;;;;;0.85;0.82;;;20.60;92.70;;;;;;5052573;28;20505;-76
2022/05/14 11:46:28;;;;;;;1.73;0.93;;;20.70;92.90;;;;;;5048309;28;20050;-75
2022/05/14 11:49:04;;;;;;;2.10;0.52;;;20.70;93.30;;;;;;5050557;28;20107;-75
2022/05/14 11:51:57;;;;;;;0.40;0.40;;;20.70;92.40;;;;;;5012714;28;20077;-74
2022/05/14 11:54:37;;;;;;;1.13;1.13;;;20.40;91.70;;;;;;5030686;28;20107;-78
2022/05/14 11:57:14;;;;;;;0.82;0.82;;;20.30;91.60;;;;;;5045964;28;20138;-75
2022/05/14 12:00:10;;;;;;;0.32;0.32;;;20.20;92.10;;;;;;5057056;28;20490;-76
2022/05/14 12:02:49;;;;;;;1.85;0.57;;;20.20;92.80;;;;;;5030389;28;20053;-75
2022/05/14 12:05:23;;;;;;;1.05;0.95;;;20.20;93.70;;;;;;5049635;28;20084;-75
2022/05/14 12:08:12;;;;;;;0.50;0.50;;;20.10;92.60;;;;;;5031872;28;20390;-75
2022/05/14 12:11:09;;;;;;;0.40;0.40;;;20.20;92.60;;;;;;5050265;28;20048;-75
2022/05/14 12:14:01;;;;;;;0.82;0.82;;;20.50;92.60;;;;;;5063131;28;20041;-75
2022/05/14 12:16:30;;;;;;;0.52;0.43;;;20.90;91.00;;;;;;5060494;28;20048;-76
2022/05/14 12:18:56;;;;;;;0.77;0.35;;;20.80;91.10;;;;;;5065149;28;20045;-78
2022/05/14 12:21:24;;;;;;;0.55;0.55;;;20.70;90.80;;;;;;5063513;28;20063;-75
2022/05/14 12:23:49;;;;;;;0.90;0.75;;;20.70;89.90;;;;;;5064693;28;20474;-75
2022/05/14 12:26:31;;;;;;;0.77;0.77;;;20.50;86.90;;;;;;5037242;28;20045;-75
2022/05/14 12:29:01;;;;;;;0.25;0.25;;;20.30;90.20;;;;;;5049657;28;20045;-75
2022/05/14 12:34:20;;;;;;;0.70;0.70;;;20.60;90.60;;;;;;5049289;28;20041;-76
2022/05/14 12:36:52;;;;;;;0.38;0.38;;;20.80;86.90;;;;;;5013923;28;20068;-76
2022/05/14 12:39:22;;;;;;;5.80;1.08;;;20.80;87.70;;;;;;5048936;28;20473;-74
2022/05/14 12:41:57;;;;;;;1.85;0.60;;;20.70;88.60;;;;;;5054350;28;20076;-75
2022/05/14 12:44:41;;;;;;;0.20;0.20;;;20.80;90.20;;;;;;5050423;28;20466;-77
2022/05/14 12:47:08;;;;;;;0.20;0.20;;;20.90;87.80;;;;;;5053056;28;20045;-75
2022/05/14 12:49:42;;;;;;;1.27;1.17;;;21.00;90.30;;;;;;5016759;28;20358;-75
2022/05/14 12:52:11;;;;;;;0.30;0.30;;;21.30;90.50;;;;;;5053405;28;20040;-77
2022/05/14 12:54:52;;;;;;;4.80;2.53;;;21.10;87.90;;;;;;5058596;28;20417;-77
2022/05/14 12:57:21;;;;;;;3.05;1.25;;;20.80;89.10;;;;;;5048522;28;20146;-76
2022/05/14 12:59:46;;;;;;;1.63;0.60;;;20.50;89.50;;;;;;5028777;28;20037;-76
2022/05/14 13:02:25;;;;;;;0.47;0.47;;;20.70;91.00;;;;;;5056577;28;20045;-75
2022/05/14 13:05:03;;;;;;;0.40;0.40;;;21.20;91.90;;;;;;5048286;28;20041;-76
2022/05/14 13:07:31;;;;;;;0.30;0.30;;;21.50;91.20;;;;;;5035986;28;20076;-76
2022/05/14 13:09:57;;;;;;;0.70;0.70;;;21.60;91.10;;;;;;5051791;28;20044;-77
2022/05/14 13:12:28;;;;;;;1.35;1.15;;;21.50;89.40;;;;;;5057541;28;20041;-77
2022/05/14 13:14:59;;;;;;;1.20;0.73;;;21.30;87.00;;;;;;5051819;28;20470;-80
2022/05/14 13:17:33;;;;;;;1.17;0.50;;;21.10;85.90;;;;;;5050554;28;20080;-76
2022/05/14 13:19:59;;;;;;;1.52;1.42;;;21.30;85.70;;;;;;5067056;28;20049;-73
2022/05/14 13:22:33;;;;;;;1.52;0.65;;;21.50;89.50;;;;;;5067409;28;20052;-75
2022/05/14 13:25:03;;;;;;;0.57;0.57;;;21.40;84.60;;;;;;5038147;28;20042;-76
2022/05/14 13:27:35;;;;;;;0.40;0.40;;;21.30;84.60;;;;;;5049725;28;20041;-76
2022/05/14 13:30:13;;;;;;;2.78;1.50;;;21.00;84.60;;;;;;5043067;28;20037;-76
2022/05/14 13:32:39;;;;;;;0.30;0.30;;;21.10;87.00;;;;;;5056147;28;20052;-76